Mindoro Star — V7RE6 — position and weather

sailwx.info

Track history (hours):
 
Tides and Currents Weather Stations Pressure Air Temp Water Temp Dewpoint Dewpoint Depression Visibility Wind Speed Wind Dir Waves Ship Positions

Mindoro Star

Last reported at 2018-Apr-15 11:12 UTC. Time now 2018-Apr-24 22:49 UTC.
Position N 29°21' W 094°43'.
Warning: this ship's position is 9 days out of date.

Length 238 m; draft 7.9 m.

Type: Tanker. MMSI: 538003490.

Date/timePositionNaut miles runAvg speedWind from/ knotsBaromVisibWave heightAir tempDewpointWater temp
2018-Apr-15 11:12N 29°21' W 094°43'0 0.0
2018-Apr-15 10:18N 29°21' W 094°43'0 0.1
2018-Apr-15 09:36N 29°21' W 094°43'0 0.0
2018-Apr-15 06:54N 29°21' W 094°43'0 0.0
2018-Apr-14 13:00N 29°21' W 094°43'0 0.0
2018-Apr-14 12:21N 29°21' W 094°43'0 0.0
2018-Apr-14 12:00N 29°21' W 094°43'0 0.0
2018-Apr-14 11:30N 29°21' W 094°43'0 0.1
2018-Apr-14 07:33N 29°21' W 094°43'0 0.0
2018-Apr-14 07:15N 29°21' W 094°43'0 0.0
2018-Apr-14 06:57N 29°21' W 094°43'0 0.0
2018-Apr-14 06:30N 29°21' W 094°43'0 0.0
2018-Apr-14 06:00N 29°21' W 094°43'0 0.1
2018-Apr-14 04:27N 29°21' W 094°43'0 0.0
2018-Apr-13 17:55N 29°21' W 094°43'2 5.1
2018-Apr-13 17:28N 29°20' W 094°41'510.5
2018-Apr-13 17:00N 29°18' W 094°36'4 0.4
2018-Apr-13 08:24N 29°14' W 094°36'0 0.0
2018-Apr-13 07:54N 29°14' W 094°36'0 0.0
2018-Apr-13 07:30N 29°14' W 094°36'0 0.0
2018-Apr-13 06:48N 29°14' W 094°36'0 0.0
2018-Apr-13 05:45N 29°14' W 094°36'0 0.0
2018-Apr-13 05:30N 29°14' W 094°36'0 0.0
2018-Apr-13 04:42N 29°14' W 094°36'0 0.0
2018-Apr-13 04:27N 29°14' W 094°36'0 0.0
2018-Apr-13 04:00N 29°14' W 094°36'0 0.0
2018-Apr-13 03:24N 29°14' W 094°36'0 0.0
2018-Apr-13 03:00N 29°14' W 094°36'0 0.0
2018-Apr-13 01:51N 29°14' W 094°36'0 0.3
2018-Apr-13 01:09N 29°14' W 094°36'0 0.7
2018-Apr-13 00:58N 29°14' W 094°36'2 4.7
2018-Apr-13 00:30N 29°14' W 094°33'5 9.1
2018-Apr-12 23:57N 29°12' W 094°28'410.0
2018-Apr-12 23:30N 29°09' W 094°25'611.1
2018-Apr-12 23:00N 29°03' W 094°25'511.0
2018-Apr-12 22:30N 28°58' W 094°25'610.9
2018-Apr-12 21:58N 28°52' W 094°25'810.9
2018-Apr-12 21:15N 28°44' W 094°25'311.0
2018-Apr-12 21:00N 28°41' W 094°25'611.2
2018-Apr-12 20:30N 28°36' W 094°25'5 8.9
2018-Apr-12 20:00N 28°31' W 094°26'2 3.1
2018-Apr-12 19:30N 28°30' W 094°27'1 2.0
2018-Apr-12 18:57N 28°29' W 094°28'1 1.4
2018-Apr-12 18:14N 28°28' W 094°28'0 1.4
2018-Apr-12 17:57N 28°28' W 094°28'3 3.9
2018-Apr-12 17:08N 28°28' W 094°32'2 7.9
2018-Apr-12 16:53N 28°29' W 094°34'3 7.5
2018-Apr-12 16:28N 28°29' W 094°38'3 4.9
2018-Apr-12 15:50N 28°26' W 094°38'2 1.1
2018-Apr-12 14:05N 28°25' W 094°36'1 2.6
2018-Apr-12 13:51N 28°26' W 094°36'1 1.5
2018-Apr-12 13:27N 28°26' W 094°35'4 0.8
2018-Apr-12 08:24N 28°23' W 094°31'0 0.0
2018-Apr-12 07:50N 28°23' W 094°31'0 0.0
2018-Apr-12 07:30N 28°23' W 094°31'0 0.0
2018-Apr-12 07:00N 28°23' W 094°31'0 0.0
2018-Apr-12 06:30N 28°23' W 094°31'0 0.0
2018-Apr-12 06:00N 28°23' W 094°31'0 0.0
2018-Apr-12 05:30N 28°23' W 094°31'0 0.0
2018-Apr-12 05:00N 28°23' W 094°31'0 0.0
2018-Apr-12 04:30N 28°23' W 094°31'0 0.0
2018-Apr-12 04:00N 28°23' W 094°31'0 0.0
2018-Apr-12 03:30N 28°23' W 094°31'0 0.0
2018-Apr-12 03:00N 28°23' W 094°31'0 0.0
2018-Apr-12 02:30N 28°23' W 094°31'0 0.0
2018-Apr-12 01:56N 28°23' W 094°31'0 0.0
2018-Apr-12 01:30N 28°23' W 094°31'0 0.0
2018-Apr-11 15:16N 28°23' W 094°31'0 0.0
2018-Apr-11 13:01N 28°23' W 094°31'0 0.0
2018-Apr-11 12:49N 28°23' W 094°31'0 0.0
2018-Apr-11 11:24N 28°23' W 094°31'0 0.0
2018-Apr-11 10:54N 28°23' W 094°31'0 0.0
2018-Apr-11 10:09N 28°23' W 094°31'0 0.0
2018-Apr-11 09:45N 28°23' W 094°31'19 0.5
2018-Apr-09 19:59N 28°40' W 094°40'  
2018-Apr-05 22:01N 29°14' W 094°37'0 0.1
2018-Apr-05 21:58N 29°14' W 094°37'0 0.0
2018-Apr-05 21:28N 29°14' W 094°37'0 0.0
2018-Apr-05 20:58N 29°14' W 094°37'0 0.0
2018-Apr-05 20:28N 29°14' W 094°37'0 0.0
2018-Apr-05 19:58N 29°14' W 094°37'0 0.0
2018-Apr-05 19:25N 29°14' W 094°37'0 0.0
2018-Apr-05 18:58N 29°14' W 094°37'0 0.0
2018-Apr-05 18:28N 29°14' W 094°37'0 0.0
2018-Apr-05 17:58N 29°14' W 094°37'0 0.1
2018-Apr-05 17:28N 29°14' W 094°37'0 0.0
2018-Apr-05 16:55N 29°14' W 094°37'0 0.0
2018-Apr-05 16:28N 29°14' W 094°37'0 0.0
2018-Apr-05 15:58N 29°14' W 094°37'0 0.0
2018-Apr-05 15:25N 29°14' W 094°37'0 0.0
2018-Apr-05 14:55N 29°14' W 094°37'0 0.0
2018-Apr-05 14:28N 29°14' W 094°37'0 0.0
2018-Apr-05 13:58N 29°14' W 094°37'0 0.0
2018-Apr-05 13:28N 29°14' W 094°37'0 0.0
2018-Apr-05 12:58N 29°14' W 094°37'0 0.0
2018-Apr-05 12:25N 29°14' W 094°37'0 0.0
2018-Apr-05 11:58N 29°14' W 094°37'0 0.0
2018-Apr-05 11:28N 29°14' W 094°37'  
Track history (hours):
 
Tides and Currents Weather Stations Pressure Air Temp Water Temp Dewpoint Dewpoint Depression Visibility Wind Speed Wind Dir Waves Ship Positions

Mindoro Star

Last reported at 2018-Apr-15 11:12 UTC. Time now 2018-Apr-24 22:49 UTC.
Position N 29°21' W 094°43'.
Warning: this ship's position is 9 days out of date.

Length 238 m; draft 7.9 m.

Type: Tanker. MMSI: 538003490.

Date/timePositionNaut miles runAvg speedWind from/ knotsBaromVisibWave heightAir tempDewpointWater temp
2018-Apr-15 11:12N 29°21' W 094°43'0 0.0
2018-Apr-15 10:18N 29°21' W 094°43'0 0.1
2018-Apr-15 09:36N 29°21' W 094°43'0 0.0
2018-Apr-15 06:54N 29°21' W 094°43'0 0.0
2018-Apr-14 13:00N 29°21' W 094°43'0 0.0
2018-Apr-14 12:21N 29°21' W 094°43'0 0.0
2018-Apr-14 12:00N 29°21' W 094°43'0 0.0
2018-Apr-14 11:30N 29°21' W 094°43'0 0.1
2018-Apr-14 07:33N 29°21' W 094°43'0 0.0
2018-Apr-14 07:15N 29°21' W 094°43'0 0.0
2018-Apr-14 06:57N 29°21' W 094°43'0 0.0
2018-Apr-14 06:30N 29°21' W 094°43'0 0.0
2018-Apr-14 06:00N 29°21' W 094°43'0 0.1
2018-Apr-14 04:27N 29°21' W 094°43'0 0.0
2018-Apr-13 17:55N 29°21' W 094°43'2 5.1
2018-Apr-13 17:28N 29°20' W 094°41'510.5
2018-Apr-13 17:00N 29°18' W 094°36'4 0.4
2018-Apr-13 08:24N 29°14' W 094°36'0 0.0
2018-Apr-13 07:54N 29°14' W 094°36'0 0.0
2018-Apr-13 07:30N 29°14' W 094°36'0 0.0
2018-Apr-13 06:48N 29°14' W 094°36'0 0.0
2018-Apr-13 05:45N 29°14' W 094°36'0 0.0
2018-Apr-13 05:30N 29°14' W 094°36'0 0.0
2018-Apr-13 04:42N 29°14' W 094°36'0 0.0
2018-Apr-13 04:27N 29°14' W 094°36'0 0.0
2018-Apr-13 04:00N 29°14' W 094°36'0 0.0
2018-Apr-13 03:24N 29°14' W 094°36'0 0.0
2018-Apr-13 03:00N 29°14' W 094°36'0 0.0
2018-Apr-13 01:51N 29°14' W 094°36'0 0.3
2018-Apr-13 01:09N 29°14' W 094°36'0 0.7
2018-Apr-13 00:58N 29°14' W 094°36'2 4.7
2018-Apr-13 00:30N 29°14' W 094°33'5 9.1
2018-Apr-12 23:57N 29°12' W 094°28'410.0
2018-Apr-12 23:30N 29°09' W 094°25'611.1
2018-Apr-12 23:00N 29°03' W 094°25'511.0
2018-Apr-12 22:30N 28°58' W 094°25'610.9
2018-Apr-12 21:58N 28°52' W 094°25'810.9
2018-Apr-12 21:15N 28°44' W 094°25'311.0
2018-Apr-12 21:00N 28°41' W 094°25'611.2
2018-Apr-12 20:30N 28°36' W 094°25'5 8.9
2018-Apr-12 20:00N 28°31' W 094°26'2 3.1
2018-Apr-12 19:30N 28°30' W 094°27'1 2.0
2018-Apr-12 18:57N 28°29' W 094°28'1 1.4
2018-Apr-12 18:14N 28°28' W 094°28'0 1.4
2018-Apr-12 17:57N 28°28' W 094°28'3 3.9
2018-Apr-12 17:08N 28°28' W 094°32'2 7.9
2018-Apr-12 16:53N 28°29' W 094°34'3 7.5
2018-Apr-12 16:28N 28°29' W 094°38'3 4.9
2018-Apr-12 15:50N 28°26' W 094°38'2 1.1
2018-Apr-12 14:05N 28°25' W 094°36'1 2.6
2018-Apr-12 13:51N 28°26' W 094°36'1 1.5
2018-Apr-12 13:27N 28°26' W 094°35'4 0.8
2018-Apr-12 08:24N 28°23' W 094°31'0 0.0
2018-Apr-12 07:50N 28°23' W 094°31'0 0.0
2018-Apr-12 07:30N 28°23' W 094°31'0 0.0
2018-Apr-12 07:00N 28°23' W 094°31'0 0.0
2018-Apr-12 06:30N 28°23' W 094°31'0 0.0
2018-Apr-12 06:00N 28°23' W 094°31'0 0.0
2018-Apr-12 05:30N 28°23' W 094°31'0 0.0
2018-Apr-12 05:00N 28°23' W 094°31'0 0.0
2018-Apr-12 04:30N 28°23' W 094°31'0 0.0
2018-Apr-12 04:00N 28°23' W 094°31'0 0.0
2018-Apr-12 03:30N 28°23' W 094°31'0 0.0
2018-Apr-12 03:00N 28°23' W 094°31'0 0.0
2018-Apr-12 02:30N 28°23' W 094°31'0 0.0
2018-Apr-12 01:56N 28°23' W 094°31'0 0.0
2018-Apr-12 01:30N 28°23' W 094°31'0 0.0
2018-Apr-11 15:16N 28°23' W 094°31'0 0.0
2018-Apr-11 13:01N 28°23' W 094°31'0 0.0
2018-Apr-11 12:49N 28°23' W 094°31'0 0.0
2018-Apr-11 11:24N 28°23' W 094°31'0 0.0
2018-Apr-11 10:54N 28°23' W 094°31'0 0.0
2018-Apr-11 10:09N 28°23' W 094°31'0 0.0
2018-Apr-11 09:45N 28°23' W 094°31'19 0.5
2018-Apr-09 19:59N 28°40' W 094°40'  
2018-Apr-05 22:01N 29°14' W 094°37'0 0.1
2018-Apr-05 21:58N 29°14' W 094°37'0 0.0
2018-Apr-05 21:28N 29°14' W 094°37'0 0.0
2018-Apr-05 20:58N 29°14' W 094°37'0 0.0
2018-Apr-05 20:28N 29°14' W 094°37'0 0.0
2018-Apr-05 19:58N 29°14' W 094°37'0 0.0
2018-Apr-05 19:25N 29°14' W 094°37'0 0.0
2018-Apr-05 18:58N 29°14' W 094°37'0 0.0
2018-Apr-05 18:28N 29°14' W 094°37'0 0.0
2018-Apr-05 17:58N 29°14' W 094°37'0 0.1
2018-Apr-05 17:28N 29°14' W 094°37'0 0.0
2018-Apr-05 16:55N 29°14' W 094°37'0 0.0
2018-Apr-05 16:28N 29°14' W 094°37'0 0.0
2018-Apr-05 15:58N 29°14' W 094°37'0 0.0
2018-Apr-05 15:25N 29°14' W 094°37'0 0.0
2018-Apr-05 14:55N 29°14' W 094°37'0 0.0
2018-Apr-05 14:28N 29°14' W 094°37'0 0.0
2018-Apr-05 13:58N 29°14' W 094°37'0 0.0
2018-Apr-05 13:28N 29°14' W 094°37'0 0.0
2018-Apr-05 12:58N 29°14' W 094°37'0 0.0
2018-Apr-05 12:25N 29°14' W 094°37'0 0.0
2018-Apr-05 11:58N 29°14' W 094°37'0 0.0
2018-Apr-05 11:28N 29°14' W 094°37'  

Dump ship's entire track history